Time;durP1;ratioP1;P1;durP2;ratioP2;P2;SDS_P1;SDS_P2;PMS_P1;PMS_P2;Temp;Humidity;BMP_temperature;BMP_pressure;BME280_temperature;BME280_humidity;BME280_pressure;Samples;Min_cycle;Max_cycle;Signal;HPM_P1;HPM_P2
2023/04/30 00:01:02;;;;;;;16.23;8.00;;;;;;;12.10;46.99;99671.00;5020277;28;20439;-73
2023/04/30 00:03:28;;;;;;;16.98;8.15;;;;;;;12.08;46.96;99672.19;5020265;28;20571;-73
2023/04/30 00:05:54;;;;;;;17.45;8.82;;;;;;;12.03;47.18;99679.84;5020016;28;20071;-73
2023/04/30 00:08:20;;;;;;;16.75;9.27;;;;;;;12.05;48.70;99672.53;5004003;28;20531;-73
2023/04/30 00:10:46;;;;;;;19.55;9.88;;;;;;;12.19;48.23;99686.00;5003753;28;20044;-73
2023/04/30 00:13:12;;;;;;;24.45;11.85;;;;;;;12.01;47.60;99682.66;5003607;28;20063;-73
2023/04/30 00:15:40;;;;;;;30.23;13.50;;;;;;;12.02;47.61;99679.03;5032752;28;20083;-73
2023/04/30 00:18:06;;;;;;;31.90;17.58;;;;;;;11.94;47.72;99684.34;5043573;28;20105;-73
2023/04/30 00:20:34;;;;;;;45.00;21.15;;;;;;;12.00;48.36;99689.00;5044607;28;20044;-74
2023/04/30 00:23:00;;;;;;;44.67;25.30;;;;;;;11.83;48.81;99689.97;5044604;28;20147;-73
2023/04/30 00:25:25;;;;;;;55.65;30.88;;;;;;;11.81;48.86;99695.47;5044595;28;20465;-73
2023/04/30 00:27:51;;;;;;;69.53;29.05;;;;;;;11.82;48.96;99702.44;5061385;28;20101;-73
2023/04/30 00:30:17;;;;;;;47.03;26.42;;;;;;;11.80;49.14;99703.59;5061049;28;20048;-73
2023/04/30 00:32:44;;;;;;;38.08;19.45;;;;;;;11.79;49.14;99700.09;5044160;28;20058;-73
2023/04/30 00:35:11;;;;;;;35.63;17.00;;;;;;;11.93;49.10;99688.00;5077761;28;20056;-74
2023/04/30 00:37:37;;;;;;;35.05;16.23;;;;;;;11.80;48.92;99700.94;5060951;28;20048;-73
2023/04/30 00:40:03;;;;;;;28.20;14.00;;;;;;;11.83;49.07;99704.13;5077471;28;20359;-73
2023/04/30 00:42:31;;;;;;;30.75;14.02;;;;;;;11.75;48.77;99703.25;5061424;28;20054;-74
2023/04/30 00:44:58;;;;;;;32.03;14.75;;;;;;;11.90;49.11;99697.13;5077440;28;20044;-74
2023/04/30 00:47:24;;;;;;;27.80;13.45;;;;;;;11.71;48.57;99692.13;5044467;28;20105;-73
2023/04/30 00:49:50;;;;;;;32.53;12.93;;;;;;;11.77;48.68;99698.63;5077213;28;20048;-73
2023/04/30 00:52:16;;;;;;;29.85;11.93;;;;;;;11.65;48.85;99698.09;5044073;28;20494;-73
2023/04/30 00:54:42;;;;;;;27.92;12.30;;;;;;;11.59;49.06;99696.03;5043620;28;20040;-73
2023/04/30 00:57:11;;;;;;;28.63;11.43;;;;;;;11.79;49.35;99689.47;5043665;28;20040;-73
2023/04/30 00:59:38;;;;;;;30.05;14.65;;;;;;;11.60;49.25;99700.38;5076996;28;20039;-73
2023/04/30 01:02:04;;;;;;;30.23;15.55;;;;;;;11.45;49.44;99698.50;5076925;28;20108;-74
2023/04/30 01:04:31;;;;;;;30.45;15.63;;;;;;;11.50;49.62;99698.88;5043564;28;20051;-73
2023/04/30 01:07:00;;;;;;;29.88;14.68;;;;;;;11.47;49.97;99692.03;5043683;28;20059;-73
2023/04/30 01:09:28;;;;;;;27.02;13.40;;;;;;;11.49;49.92;99702.50;5044342;28;20394;-73
2023/04/30 01:12:10;;;;;;;31.98;13.32;;;;;;;11.71;49.96;99685.97;5077133;28;20047;-74
2023/04/30 01:14:39;;;;;;;;;;;;;;;11.89;49.59;99697.28;5094049;28;20134;-73
2023/04/30 01:17:15;;;;;;;26.38;12.82;;;;;;;11.65;49.98;99695.41;5076641;28;19919;-74
2023/04/30 01:19:45;;;;;;;20.88;12.20;;;;;;;11.59;50.12;99701.38;5043207;28;20044;-73
2023/04/30 01:22:29;;;;;;;28.90;13.02;;;;;;;11.66;50.13;99698.94;5043478;28;20055;-73
2023/04/30 01:25:24;;;;;;;30.77;13.85;;;;;;;11.68;50.15;99696.94;5043926;28;20136;-73
2023/04/30 01:28:00;;;;;;;26.80;13.68;;;;;;;11.68;50.15;99691.63;5076408;28;20062;-73
2023/04/30 01:30:28;;;;;;;25.70;14.10;;;;;;;11.53;49.76;99703.88;5043387;28;20379;-73
2023/04/30 01:32:54;;;;;;;31.30;13.75;;;;;;;11.32;49.41;99703.44;5043584;28;20055;-73
2023/04/30 01:35:41;;;;;;;31.27;14.70;;;;;;;11.68;49.90;99711.09;5076956;28;20052;-73
2023/04/30 01:38:41;;;;;;;35.15;14.45;;;;;;;11.80;49.75;99708.94;5043089;28;20482;-73
2023/04/30 01:41:34;;;;;;;27.95;14.25;;;;;;;11.68;49.90;99691.63;5059269;28;20040;-74
2023/04/30 01:44:17;;;;;;;33.17;14.95;;;;;;;11.63;49.50;99699.25;5042787;28;20051;-73
2023/04/30 01:46:54;;;;;;;32.55;15.88;;;;;;;11.52;49.47;99705.69;5059386;28;20044;-73
2023/04/30 01:49:43;;;;;;;43.50;15.70;;;;;;;11.64;50.07;99703.56;5059364;28;20043;-73
2023/04/30 01:52:26;;;;;;;33.00;14.43;;;;;;;11.47;50.14;99709.84;5059519;28;20051;-74
2023/04/30 01:55:00;;;;;;;39.58;15.52;;;;;;;11.47;50.45;99701.84;5059497;28;20058;-73
2023/04/30 01:57:41;;;;;;;45.85;13.40;;;;;;;11.49;50.47;99694.53;5042956;28;20047;-73
2023/04/30 02:00:13;;;;;;;36.80;14.02;;;;;;;11.24;50.14;99692.81;5059498;28;20100;-74
2023/04/30 02:02:41;;;;;;;32.50;13.88;;;;;;;11.11;50.17;99687.94;5060326;28;20044;-73
2023/04/30 02:05:07;;;;;;;35.72;13.70;;;;;;;11.27;50.10;99687.97;5060682;28;20047;-73
2023/04/30 02:07:44;;;;;;;33.67;14.25;;;;;;;11.49;50.00;99681.22;5042824;28;20050;-74
2023/04/30 02:10:13;;;;;;;40.38;15.40;;;;;;;11.18;49.91;99683.63;5059160;28;20058;-73
2023/04/30 02:12:40;;;;;;;32.55;13.45;;;;;;;11.07;50.18;99685.75;5043345;28;20939;-73
2023/04/30 02:15:07;;;;;;;34.13;13.07;;;;;;;11.25;50.69;99683.81;5042663;28;20068;-73
2023/04/30 02:17:36;;;;;;;32.30;10.20;;;;;;;11.14;50.86;99676.97;5059848;28;20075;-74
2023/04/30 02:20:03;;;;;;;21.60;9.95;;;;;;;11.17;51.08;99671.34;5042256;28;20094;-74
2023/04/30 02:22:31;;;;;;;26.92;10.38;;;;;;;11.07;51.20;99667.16;5059646;28;20117;-73
2023/04/30 02:24:56;;;;;;;22.38;11.50;;;;;;;11.09;51.45;99662.50;5058938;28;20040;-73
2023/04/30 02:27:24;;;;;;;24.20;12.30;;;;;;;11.29;51.73;99651.44;5058602;28;20036;-73
2023/04/30 02:29:51;;;;;;;25.20;12.30;;;;;;;11.14;51.78;99638.94;5042203;28;20052;-73
2023/04/30 02:32:17;;;;;;;32.33;12.38;;;;;;;11.04;51.74;99651.53;5042286;28;20032;-73
2023/04/30 02:34:44;;;;;;;28.58;12.70;;;;;;;11.09;51.85;99659.84;5058783;28;20071;-73
2023/04/30 02:37:09;;;;;;;27.85;12.82;;;;;;;11.12;52.03;99659.50;5041826;28;20044;-73
2023/04/30 02:39:35;;;;;;;24.13;12.95;;;;;;;11.12;52.16;99652.38;5074618;28;20126;-74
2023/04/30 02:42:01;;;;;;;29.85;11.52;;;;;;;11.14;52.05;99646.91;5042096;28;20039;-73
2023/04/30 02:44:28;;;;;;;30.92;12.43;;;;;;;11.26;51.95;99649.09;5058511;28;20055;-73
2023/04/30 02:46:53;;;;;;;21.75;11.18;;;;;;;11.11;51.89;99637.44;5041920;28;20039;-73
2023/04/30 02:49:19;;;;;;;26.05;12.07;;;;;;;11.25;52.02;99659.91;5058430;28;20466;-74
2023/04/30 02:51:45;;;;;;;23.92;11.75;;;;;;;11.31;51.60;99657.44;5058226;28;20085;-74
2023/04/30 02:54:11;;;;;;;27.13;11.88;;;;;;;11.34;51.67;99657.09;5041622;28;20054;-74
2023/04/30 02:56:38;;;;;;;19.55;10.65;;;;;;;11.26;51.70;99670.38;5041789;28;20470;-73
2023/04/30 02:59:05;;;;;;;16.98;10.13;;;;;;;11.52;52.12;99671.09;5058139;28;20074;-73
2023/04/30 03:01:31;;;;;;;32.03;11.95;;;;;;;11.27;52.39;99664.03;5058115;28;20082;-73
2023/04/30 03:03:58;;;;;;;27.17;12.43;;;;;;;11.18;52.75;99666.84;5058196;28;20426;-73
2023/04/30 03:06:24;;;;;;;21.35;11.68;;;;;;;11.10;53.34;99662.31;5041880;28;20828;-73
2023/04/30 03:08:49;;;;;;;24.95;12.52;;;;;;;11.11;53.69;99663.16;5042056;28;20482;-73
2023/04/30 03:11:15;;;;;;;23.63;13.60;;;;;;;11.11;55.59;99658.69;5041731;28;20043;-73
2023/04/30 03:13:42;;;;;;;27.02;13.35;;;;;;;11.31;54.28;99667.22;5042673;28;20055;-73
2023/04/30 03:16:09;;;;;;;27.98;13.38;;;;;;;11.29;54.18;99671.88;5058756;28;20109;-74
2023/04/30 03:18:36;;;;;;;27.75;13.38;;;;;;;11.15;54.12;99664.50;5042073;28;20485;-74
2023/04/30 03:21:02;;;;;;;36.85;13.23;;;;;;;11.10;54.37;99662.31;5042270;28;20389;-73
2023/04/30 03:23:28;;;;;;;37.10;14.63;;;;;;;11.15;54.41;99656.53;5058376;28;20131;-73
2023/04/30 03:25:54;;;;;;;35.63;13.68;;;;;;;11.17;54.78;99647.41;5041553;28;20036;-73
2023/04/30 03:28:20;;;;;;;28.90;12.80;;;;;;;11.20;54.88;99655.06;5041040;28;20511;-73
2023/04/30 03:30:46;;;;;;;22.42;11.98;;;;;;;11.35;54.82;99641.97;5041028;28;20044;-73
2023/04/30 03:33:12;;;;;;;26.23;12.35;;;;;;;11.27;54.89;99649.94;5041158;28;20127;-73
2023/04/30 03:35:38;;;;;;;23.35;13.13;;;;;;;11.32;54.65;99640.47;5041184;28;20441;-73
2023/04/30 03:38:04;;;;;;;19.55;10.38;;;;;;;11.34;54.24;99640.31;5041206;28;20071;-74
2023/04/30 03:40:30;;;;;;;17.70;10.55;;;;;;;11.47;54.02;99633.53;5074150;28;20062;-73
2023/04/30 03:42:56;;;;;;;23.63;12.27;;;;;;;11.60;53.47;99628.56;5041332;28;20040;-73
2023/04/30 03:45:22;;;;;;;18.70;11.45;;;;;;;11.71;53.50;99632.75;5057548;28;20051;-73
2023/04/30 03:47:48;;;;;;;17.67;10.02;;;;;;;11.81;52.87;99634.25;5057598;28;20051;-73
2023/04/30 03:50:16;;;;;;;17.83;10.50;;;;;;;12.12;52.82;99636.22;5040982;28;20135;-73
2023/04/30 03:52:42;;;;;;;16.33;9.70;;;;;;;12.07;52.35;99633.25;5061196;28;20096;-73
2023/04/30 03:55:10;;;;;;;18.67;10.25;;;;;;;12.00;52.35;99632.25;5045456;28;20044;-73
2023/04/30 03:57:37;;;;;;;29.63;12.40;;;;;;;12.20;52.27;99629.09;5045130;28;20048;-73
2023/04/30 04:00:07;;;;;;;24.70;13.57;;;;;;;12.22;52.02;99629.75;5062037;28;20048;-73
2023/04/30 04:02:40;;;;;;;27.60;12.82;;;;;;;12.42;51.90;99632.88;5063890;28;20142;-73
2023/04/30 04:05:09;;;;;;;27.85;14.65;;;;;;;12.43;51.85;99629.19;5045897;28;20044;-73
2023/04/30 04:07:35;;;;;;;33.22;16.08;;;;;;;12.57;51.74;99621.34;5045076;28;20127;-73
2023/04/30 04:10:01;;;;;;;36.35;16.23;;;;;;;12.68;51.46;99621.00;5044766;28;20204;-73
2023/04/30 04:12:31;;;;;;;32.30;15.80;;;;;;;12.82;50.98;99622.09;5046113;28;20044;-73
2023/04/30 04:14:58;;;;;;;34.42;15.98;;;;;;;12.95;50.58;99615.22;5045072;28;20070;-73
2023/04/30 04:17:24;;;;;;;32.60;14.93;;;;;;;13.14;50.19;99617.50;5044780;28;20080;-73
2023/04/30 04:19:51;;;;;;;27.73;13.55;;;;;;;13.34;50.36;99620.53;5045111;28;20058;-73
2023/04/30 04:22:18;;;;;;;26.23;14.45;;;;;;;13.49;49.79;99627.63;5061154;28;20485;-73
2023/04/30 04:24:46;;;;;;;21.25;12.60;;;;;;;13.64;48.85;99627.66;5044771;28;20040;-73
2023/04/30 04:27:18;;;;;;;24.75;11.95;;;;;;;13.80;48.21;99629.38;5045990;28;20116;-73
2023/04/30 04:29:45;;;;;;;27.60;13.20;;;;;;;13.96;47.78;99624.75;5061458;28;20052;-73
2023/04/30 04:32:13;;;;;;;23.65;12.50;;;;;;;14.10;48.10;99618.63;5061220;28;20044;-74
2023/04/30 04:34:42;;;;;;;20.83;11.38;;;;;;;14.25;46.83;99629.38;5045237;28;20051;-73
2023/04/30 04:37:09;;;;;;;21.25;10.35;;;;;;;14.38;46.35;99632.22;5061206;28;20138;-73
2023/04/30 04:39:36;;;;;;;17.88;10.00;;;;;;;14.45;45.55;99633.19;5044686;28;20051;-73
2023/04/30 04:42:03;;;;;;;18.48;10.07;;;;;;;14.54;44.78;99626.75;5044774;28;20493;-74
2023/04/30 04:44:31;;;;;;;16.40;8.85;;;;;;;14.63;44.90;99617.63;5040010;28;20079;-73
2023/04/30 04:46:58;;;;;;;15.98;9.65;;;;;;;14.70;44.58;99605.16;5023163;28;20518;-73
2023/04/30 04:49:24;;;;;;;17.58;9.00;;;;;;;14.87;43.87;99623.50;5023347;28;20055;-73
2023/04/30 04:51:52;;;;;;;18.70;10.25;;;;;;;14.94;43.41;99623.59;5023580;28;20048;-73
2023/04/30 04:54:18;;;;;;;20.48;10.00;;;;;;;15.08;43.43;99623.56;5039722;28;20389;-73
2023/04/30 04:56:44;;;;;;;19.40;9.82;;;;;;;15.27;43.57;99617.63;5022763;28;20053;-74
2023/04/30 04:59:10;;;;;;;22.02;11.23;;;;;;;15.39;42.82;99611.81;5022962;28;20413;-73
2023/04/30 05:01:36;;;;;;;20.10;10.70;;;;;;;15.52;42.82;99611.94;5023280;28;20055;-73
2023/04/30 05:04:03;;;;;;;17.50;8.40;;;;;;;15.64;42.46;99608.59;5038283;28;20400;-73
2023/04/30 05:06:28;;;;;;;14.02;6.65;;;;;;;15.73;41.20;99601.28;5023898;28;20125;-73
2023/04/30 05:08:55;;;;;;;10.75;5.45;;;;;;;15.75;40.52;99594.69;5040749;28;20491;-74
2023/04/30 05:11:21;;;;;;;10.48;6.00;;;;;;;15.83;40.19;99593.72;5055720;28;20048;-74
2023/04/30 05:13:48;;;;;;;10.77;5.22;;;;;;;15.90;39.88;99606.16;4983241;28;20060;-74
2023/04/30 05:16:16;;;;;;;9.98;4.90;;;;;;;16.00;39.53;99601.31;4999523;28;20061;-74
2023/04/30 05:18:42;;;;;;;14.05;5.55;;;;;;;16.03;39.62;99598.25;4983398;28;20495;-74
2023/04/30 05:21:08;;;;;;;9.90;4.95;;;;;;;16.15;39.28;99598.53;5007076;28;20052;-73
2023/04/30 05:23:34;;;;;;;9.75;4.80;;;;;;;16.22;38.91;99602.91;5021904;28;20147;-74
2023/04/30 05:26:00;;;;;;;9.77;4.30;;;;;;;16.36;38.41;99606.53;5022418;28;20520;-74
2023/04/30 05:28:26;;;;;;;5.63;4.15;;;;;;;16.49;38.04;99601.28;5022370;28;20094;-74
2023/04/30 05:30:52;;;;;;;11.55;3.85;;;;;;;16.58;37.38;99603.63;5038785;28;20045;-74
2023/04/30 05:33:18;;;;;;;11.60;4.40;;;;;;;16.76;37.16;99605.78;5022253;28;20056;-74
2023/04/30 05:35:44;;;;;;;9.63;3.80;;;;;;;16.83;36.86;99594.06;5005699;28;20367;-73
2023/04/30 05:38:10;;;;;;;5.78;3.47;;;;;;;17.09;36.52;99596.03;5038523;28;20059;-73
2023/04/30 05:40:36;;;;;;;11.57;4.28;;;;;;;17.06;36.53;99599.13;5055257;28;20159;-73
2023/04/30 05:43:02;;;;;;;6.75;3.70;;;;;;;17.16;36.08;99593.38;5021984;28;20060;-74
2023/04/30 05:45:27;;;;;;;9.63;4.32;;;;;;;17.19;35.94;99598.34;5034441;28;20040;-74
2023/04/30 05:47:53;;;;;;;6.70;3.30;;;;;;;17.28;35.62;99594.44;5042724;28;20470;-74
2023/04/30 05:50:19;;;;;;;7.10;3.30;;;;;;;17.36;35.46;99605.03;5059258;28;20032;-73
2023/04/30 05:52:45;;;;;;;6.53;3.88;;;;;;;17.66;35.17;99595.59;5059326;28;20050;-74
2023/04/30 05:55:11;;;;;;;8.45;4.15;;;;;;;17.60;34.97;99607.16;5042745;28;20046;-74
2023/04/30 05:57:37;;;;;;;7.22;3.95;;;;;;;17.73;34.89;99607.16;5042566;28;20044;-74
2023/04/30 06:00:05;;;;;;;10.07;3.78;;;;;;;18.11;34.61;99616.31;5059241;28;20048;-73
2023/04/30 06:02:38;;;;;;;8.77;3.95;;;;;;;18.12;34.24;99618.81;5061611;28;20052;-74
2023/04/30 06:05:06;;;;;;;9.50;4.07;;;;;;;18.54;34.00;99616.72;5042664;28;20040;-73
2023/04/30 06:07:32;;;;;;;12.55;4.00;;;;;;;18.43;33.31;99619.00;5058998;28;20492;-74
2023/04/30 06:09:58;;;;;;;6.43;3.83;;;;;;;18.52;33.35;99621.50;5058994;28;20036;-74
2023/04/30 06:12:24;;;;;;;4.80;3.65;;;;;;;18.66;32.74;99620.44;5042224;28;20104;-75
2023/04/30 06:14:51;;;;;;;6.93;3.60;;;;;;;18.81;32.61;99618.31;5058664;28;20047;-74
2023/04/30 06:17:17;;;;;;;5.43;3.25;;;;;;;18.82;32.49;99609.22;5075776;28;20066;-73
2023/04/30 06:19:43;;;;;;;7.38;3.08;;;;;;;18.90;32.34;99607.13;5042568;28;20478;-74
2023/04/30 06:22:09;;;;;;;8.40;2.90;;;;;;;19.01;32.30;99611.84;5041980;28;20052;-74
2023/04/30 06:24:35;;;;;;;9.85;2.75;;;;;;;19.30;31.90;99608.66;5058698;28;20051;-74
2023/04/30 06:27:02;;;;;;;4.60;2.47;;;;;;;19.42;31.33;99606.94;5042152;28;20063;-73
2023/04/30 06:29:28;;;;;;;3.47;2.63;;;;;;;19.47;30.76;99619.75;5041963;28;20067;-74
2023/04/30 06:31:54;;;;;;;6.30;2.78;;;;;;;19.60;30.71;99608.91;5075279;28;20474;-74
2023/04/30 06:34:20;;;;;;;5.75;2.50;;;;;;;19.66;30.28;99611.56;5042248;28;20444;-74
2023/04/30 06:36:47;;;;;;;5.63;2.75;;;;;;;19.84;30.33;99608.97;5041963;28;20493;-73
2023/04/30 06:39:16;;;;;;;5.03;2.70;;;;;;;20.10;30.53;99605.22;5058852;28;20413;-73
2023/04/30 06:41:42;;;;;;;7.20;3.22;;;;;;;19.93;30.42;99604.94;5075265;28;20040;-74
2023/04/30 06:44:09;;;;;;;7.22;3.30;;;;;;;19.94;29.96;99600.41;5058633;28;20470;-74
2023/04/30 06:46:36;;;;;;;8.27;3.08;;;;;;;20.05;30.31;99603.19;5042117;28;20040;-74
2023/04/30 06:49:02;;;;;;;9.20;2.90;;;;;;;20.03;29.49;99589.09;5041923;28;20051;-74
2023/04/30 06:51:28;;;;;;;8.13;2.88;;;;;;;20.36;29.25;99588.03;5075142;28;20629;-74
2023/04/30 06:53:55;;;;;;;7.25;2.72;;;;;;;20.51;28.33;99588.50;5041745;28;20069;-74
2023/04/30 06:56:26;;;;;;;3.63;1.83;;;;;;;20.85;27.28;99582.53;5041846;28;20043;-74
2023/04/30 06:58:53;;;;;;;11.68;1.90;;;;;;;20.58;26.61;99576.59;5057037;28;20087;-74
2023/04/30 07:01:19;;;;;;;5.97;1.67;;;;;;;19.90;25.96;99580.28;5024002;28;20080;-74
2023/04/30 07:03:45;;;;;;;5.82;1.70;;;;;;;19.73;26.37;99574.63;5036358;28;20036;-73
2023/04/30 07:06:11;;;;;;;4.97;1.60;;;;;;;19.38;26.79;99568.00;5036971;28;20147;-73
2023/04/30 07:08:39;;;;;;;4.15;1.70;;;;;;;19.31;27.06;99563.69;5037152;28;20132;-74
2023/04/30 07:11:07;;;;;;;4.10;1.33;;;;;;;19.87;26.48;99568.09;5037108;28;20047;-74
2023/04/30 07:13:33;;;;;;;4.85;1.52;;;;;;;20.03;26.11;99564.81;5036934;28;20052;-74
2023/04/30 07:15:59;;;;;;;4.47;2.00;;;;;;;20.43;25.64;99562.66;5020522;28;20067;-73
2023/04/30 07:18:25;;;;;;;4.15;1.83;;;;;;;20.28;26.08;99554.06;5004272;28;20048;-74
2023/04/30 07:20:51;;;;;;;7.85;1.52;;;;;;;20.55;25.09;99549.22;5004210;28;20078;-73
2023/04/30 07:23:17;;;;;;;3.17;1.40;;;;;;;20.76;24.63;99535.28;5004234;28;20052;-74
2023/04/30 07:25:43;;;;;;;4.45;1.27;;;;;;;20.44;24.45;99523.81;5036623;28;20044;-74
2023/04/30 07:28:10;;;;;;;3.72;1.20;;;;;;;20.65;23.50;99527.97;5020363;28;20049;-74
2023/04/30 07:30:36;;;;;;;2.13;1.20;;;;;;;20.63;22.88;99519.25;5004124;28;20143;-74
2023/04/30 07:33:02;;;;;;;5.72;1.50;;;;;;;20.95;22.46;99518.88;5020367;28;20139;-74
2023/04/30 07:35:27;;;;;;;3.42;1.10;;;;;;;20.93;22.13;99514.72;5036751;28;20527;-74
2023/04/30 07:37:53;;;;;;;4.72;1.08;;;;;;;21.23;21.81;99510.19;5036657;28;20048;-74
2023/04/30 07:40:19;;;;;;;4.95;1.80;;;;;;;20.92;21.97;99504.97;5020369;28;20135;-74
2023/04/30 07:42:46;;;;;;;4.38;1.30;;;;;;;20.83;22.15;99492.84;5044876;28;20110;-74
2023/04/30 07:45:12;;;;;;;2.72;1.20;;;;;;;20.93;22.46;99490.41;5021406;28;20052;-74
2023/04/30 07:47:38;;;;;;;6.03;1.40;;;;;;;20.86;22.35;99481.59;5021319;28;20395;-74
2023/04/30 07:50:05;;;;;;;3.33;1.30;;;;;;;20.60;22.77;99471.97;5054011;28;20045;-74
2023/04/30 07:52:31;;;;;;;11.88;7.38;;;;;;;20.28;23.23;99465.03;5054720;28;20048;-74
2023/04/30 07:54:57;;;;;;;1.65;1.10;;;;;;;19.88;23.24;99475.38;5021146;28;20044;-74
2023/04/30 07:57:25;;;;;;;4.90;1.55;;;;;;;19.48;23.98;99460.59;5021135;28;20382;-74
2023/04/30 07:59:52;;;;;;;5.47;1.30;;;;;;;19.19;24.53;99447.72;5021482;28;20052;-73
2023/04/30 08:02:18;;;;;;;6.47;2.00;;;;;;;19.04;24.91;99435.63;5021493;28;20072;-73
2023/04/30 08:04:44;;;;;;;3.47;1.40;;;;;;;18.90;25.35;99432.19;5021072;28;20083;-74
2023/04/30 08:07:11;;;;;;;5.55;1.80;;;;;;;19.06;25.43;99426.31;5021177;28;20060;-74
2023/04/30 08:09:37;;;;;;;3.50;1.65;;;;;;;19.26;25.12;99423.47;5038124;28;20390;-73
2023/04/30 08:12:03;;;;;;;6.38;1.80;;;;;;;19.26;25.19;99408.13;5039240;28;20036;-74
2023/04/30 08:14:31;;;;;;;2.95;1.70;;;;;;;19.26;25.48;99408.13;5054645;28;20052;-74
2023/04/30 08:16:59;;;;;;;5.28;1.60;;;;;;;19.38;25.37;99405.56;5037159;28;20036;-74
2023/04/30 08:19:25;;;;;;;2.33;1.67;;;;;;;19.00;25.45;99400.25;5054064;28;20040;-74
2023/04/30 08:21:51;;;;;;;4.18;1.92;;;;;;;19.04;25.38;99401.47;5020866;28;20486;-73
2023/04/30 08:24:17;;;;;;;6.40;2.67;;;;;;;18.77;25.52;99397.28;5037541;28;20049;-74
2023/04/30 08:26:43;;;;;;;2.80;1.73;;;;;;;18.82;25.34;99397.44;5037142;28;20048;-74
2023/04/30 08:29:09;;;;;;;2.55;1.60;;;;;;;18.98;25.34;99393.41;5020846;28;20045;-74
2023/04/30 08:31:36;;;;;;;7.03;2.65;;;;;;;19.16;25.34;99377.38;5037294;28;20044;-73
2023/04/30 08:34:02;;;;;;;13.00;3.08;;;;;;;18.98;25.42;99377.28;5021099;28;20043;-73
2023/04/30 08:36:28;;;;;;;5.13;2.40;;;;;;;18.90;25.10;99358.69;5037130;28;20044;-74
2023/04/30 08:38:54;;;;;;;5.78;1.67;;;;;;;18.88;24.70;99376.94;5023139;28;20051;-74
2023/04/30 08:41:25;;;;;;;3.78;1.73;;;;;;;19.04;25.20;99371.00;5041053;28;20392;-74
2023/04/30 08:43:52;;;;;;;2.88;1.50;;;;;;;18.88;25.16;99383.13;5074128;28;20061;-74
2023/04/30 08:46:23;;;;;;;7.95;1.60;;;;;;;18.95;25.56;99367.78;5074330;28;20048;-74
2023/04/30 08:48:49;;;;;;;6.68;2.70;;;;;;;18.59;25.47;99367.59;5057533;28;20044;-74
2023/04/30 08:51:15;;;;;;;6.13;1.92;;;;;;;18.65;25.57;99366.72;5024242;28;20081;-74
2023/04/30 08:53:43;;;;;;;4.43;2.28;;;;;;;18.82;25.87;99362.47;5040390;28;20048;-74
2023/04/30 08:56:10;;;;;;;3.17;1.83;;;;;;;18.63;25.71;99355.38;5090706;28;20581;-74
2023/04/30 08:58:36;;;;;;;3.03;2.00;;;;;;;18.47;26.08;99358.56;5057003;28;20044;-74
2023/04/30 09:01:04;;;;;;;2.33;1.30;;;;;;;18.55;26.04;99342.16;5040494;28;20126;-74
2023/04/30 09:03:30;;;;;;;4.97;1.85;;;;;;;18.40;26.42;99334.38;5056809;28;20425;-74
2023/04/30 09:05:57;;;;;;;4.25;1.65;;;;;;;18.32;26.49;99331.94;5057189;28;20040;-74
2023/04/30 09:08:48;;;;;;;7.28;1.50;;;;;;;18.52;26.60;99328.31;5073798;28;20113;-74
2023/04/30 09:11:27;;;;;;;6.55;1.67;;;;;;;18.43;27.06;99317.00;5040697;28;20117;-74
2023/04/30 09:13:56;;;;;;;3.17;1.35;;;;;;;18.42;26.97;99318.88;5040424;28;20101;-74
2023/04/30 09:16:23;;;;;;;4.55;1.70;;;;;;;18.57;26.80;99313.19;5023956;28;20091;-74
2023/04/30 09:18:50;;;;;;;7.38;1.80;;;;;;;18.70;26.69;99317.66;5056684;28;20394;-74
2023/04/30 09:21:16;;;;;;;4.78;1.85;;;;;;;18.99;26.74;99307.06;5056191;28;20528;-74
2023/04/30 09:23:56;;;;;;;7.30;2.40;;;;;;;19.42;26.58;99318.72;5039925;28;20048;-73
2023/04/30 09:26:27;;;;;;;8.20;1.58;;;;;;;19.41;26.20;99311.69;5056575;28;20471;-74
2023/04/30 09:28:53;;;;;;;;;;;;;;;19.63;25.99;99307.53;5023989;28;20040;-74
2023/04/30 09:31:20;;;;;;;8.27;1.98;;;;;;;19.22;26.07;99309.16;5056527;28;19967;-74
2023/04/30 09:33:46;;;;;;;6.05;1.90;;;;;;;19.23;26.01;99289.25;5023326;28;20048;-74
2023/04/30 09:36:13;;;;;;;3.30;1.83;;;;;;;19.35;25.75;99292.91;5039994;28;20045;-74
2023/04/30 09:38:39;;;;;;;6.18;1.90;;;;;;;19.27;25.99;99291.31;5039567;28;20044;-74
2023/04/30 09:41:07;;;;;;;4.80;1.90;;;;;;;19.33;25.80;99290.44;5056222;28;20048;-74
2023/04/30 09:43:33;;;;;;;3.30;1.80;;;;;;;19.18;25.33;99287.25;5023245;28;20489;-74
2023/04/30 09:45:59;;;;;;;2.33;1.50;;;;;;;19.21;25.44;99292.19;5039623;28;20048;-74
2023/04/30 09:48:30;;;;;;;4.05;1.85;;;;;;;19.36;25.18;99278.38;5023089;28;20041;-73
2023/04/30 09:50:56;;;;;;;;;;;;;;;19.63;24.93;99275.22;5074383;28;20055;-74
2023/04/30 09:53:23;;;;;;;7.63;2.20;;;;;;;19.18;25.50;99268.41;5055911;28;19955;-74
2023/04/30 09:55:50;;;;;;;9.48;2.70;;;;;;;19.30;25.42;99273.88;5023038;28;20055;-74
2023/04/30 09:58:17;;;;;;;4.28;2.00;;;;;;;19.20;25.55;99262.78;5039489;28;20048;-74
2023/04/30 10:00:45;;;;;;;5.22;1.73;;;;;;;19.23;25.61;99263.19;5039091;28;20072;-73
2023/04/30 10:03:12;;;;;;;13.88;1.63;;;;;;;19.27;25.56;99280.56;5072572;28;20400;-74
2023/04/30 10:05:45;;;;;;;3.90;1.92;;;;;;;19.19;25.28;99286.19;5072535;28;20051;-73
2023/04/30 10:08:27;;;;;;;3.25;1.70;;;;;;;19.39;25.23;99291.44;5072135;28;20048;-73
2023/04/30 10:11:04;;;;;;;3.33;1.67;;;;;;;19.37;25.21;99282.75;5039450;28;20040;-74
2023/04/30 10:13:31;;;;;;;7.05;1.80;;;;;;;19.10;25.25;99275.91;5039080;28;20098;-74
2023/04/30 10:16:00;;;;;;;5.03;1.50;;;;;;;19.03;25.25;99297.53;5038932;28;20055;-73
2023/04/30 10:18:28;;;;;;;2.78;1.70;;;;;;;19.09;25.53;99285.88;5039009;28;20382;-74
2023/04/30 10:20:54;;;;;;;8.80;2.70;;;;;;;18.99;25.59;99282.03;5072176;28;20145;-73
2023/04/30 10:23:21;;;;;;;4.45;1.60;;;;;;;19.03;25.60;99265.22;5038573;28;20768;-73
2023/04/30 10:25:47;;;;;;;2.40;1.50;;;;;;;19.07;25.33;99274.50;5038502;28;20057;-73
2023/04/30 10:28:13;;;;;;;7.93;1.50;;;;;;;19.16;25.56;99272.38;5038888;28;20048;-73
2023/04/30 10:30:42;;;;;;;10.55;1.70;;;;;;;19.27;25.46;99274.31;5022280;28;20051;-74
2023/04/30 10:33:14;;;;;;;2.58;1.63;;;;;;;19.61;25.51;99280.00;5055262;28;20047;-74
2023/04/30 10:36:03;;;;;;;3.85;1.83;;;;;;;19.74;25.19;99279.03;5055400;28;20139;-73
2023/04/30 10:38:31;;;;;;;5.78;1.98;;;;;;;19.55;25.51;99278.19;5071867;28;20391;-73
2023/04/30 10:41:00;;;;;;;7.85;2.08;;;;;;;19.60;25.18;99270.25;5055262;28;20082;-74
2023/04/30 10:43:29;;;;;;;4.90;2.20;;;;;;;19.67;25.40;99273.69;5055149;28;20032;-73
2023/04/30 10:45:57;;;;;;;4.35;1.80;;;;;;;19.54;25.38;99263.06;5055249;28;20048;-73
2023/04/30 10:48:24;;;;;;;3.63;1.92;;;;;;;19.43;25.74;99269.22;5038707;28;20040;-74
2023/04/30 10:50:52;;;;;;;6.95;2.20;;;;;;;19.49;25.83;99262.09;5021998;28;20040;-74
2023/04/30 10:53:19;;;;;;;4.53;1.80;;;;;;;19.38;26.29;99257.44;5038269;28;20083;-73
2023/04/30 10:56:07;;;;;;;5.88;1.52;;;;;;;19.59;25.87;99268.59;5054859;28;20383;-73
2023/04/30 10:58:35;;;;;;;9.85;1.92;;;;;;;19.34;26.21;99275.13;5055181;28;20091;-74
2023/04/30 11:01:09;;;;;;;2.58;1.30;;;;;;;19.44;26.44;99267.31;5053956;28;20120;-73
2023/04/30 11:03:36;;;;;;;3.20;1.60;;;;;;;19.19;26.53;99267.34;5038426;28;20063;-74
2023/04/30 11:06:18;;;;;;;5.28;1.90;;;;;;;19.33;26.44;99252.72;5054833;28;20047;-74
2023/04/30 11:08:45;;;;;;;4.07;1.55;;;;;;;19.00;26.61;99243.31;5054591;28;20072;-74
2023/04/30 11:11:13;;;;;;;8.23;2.35;;;;;;;18.96;26.66;99226.78;5072258;28;20066;-73
2023/04/30 11:13:43;;;;;;;3.67;1.67;;;;;;;18.90;26.64;99224.97;5021777;28;20062;-73
2023/04/30 11:16:10;;;;;;;4.00;1.80;;;;;;;18.92;26.51;99211.28;5039141;28;20043;-74
2023/04/30 11:18:46;;;;;;;5.32;1.90;;;;;;;19.29;26.62;99208.47;5038399;28;20306;-73
2023/04/30 11:21:12;;;;;;;4.45;2.47;;;;;;;18.88;26.52;99196.66;5021616;28;20550;-74
2023/04/30 11:23:42;;;;;;;3.75;2.22;;;;;;;19.11;26.47;99186.06;5005187;28;20044;-74
2023/04/30 11:26:09;;;;;;;3.97;2.00;;;;;;;18.84;26.63;99190.03;5054497;28;20055;-73
2023/04/30 11:28:37;;;;;;;2.88;2.00;;;;;;;18.99;26.50;99183.25;5054124;28;20044;-74
2023/04/30 11:31:04;;;;;;;4.20;2.45;;;;;;;19.05;26.88;99178.88;5037911;28;20364;-74